createdAt,value
2022-11-23T00:00:34.917Z,977.47
2022-11-23T00:05:39.088Z,977.54
2022-11-23T00:10:43.188Z,977.52
2022-11-23T00:15:47.400Z,977.67
2022-11-23T00:20:51.521Z,977.68
2022-11-23T00:25:55.691Z,977.78
2022-11-23T00:30:59.876Z,977.94
2022-11-23T00:36:04.036Z,978.04
2022-11-23T00:41:08.181Z,978.11
2022-11-23T00:46:12.341Z,978.32
2022-11-23T00:51:16.560Z,978.48
2022-11-23T00:56:20.666Z,978.68
2022-11-23T01:01:24.881Z,978.82
2022-11-23T01:06:29.007Z,978.88
2022-11-23T01:11:33.196Z,978.97
2022-11-23T01:16:37.313Z,979.13
2022-11-23T01:21:41.476Z,979.14
2022-11-23T01:26:45.653Z,979.28
2022-11-23T01:31:50.116Z,979.38
2022-11-23T01:36:53.959Z,979.39
2022-11-23T01:41:58.112Z,979.44
2022-11-23T01:47:02.302Z,979.47
2022-11-23T01:52:04.533Z,979.43
2022-11-23T01:57:08.735Z,979.49
2022-11-23T02:02:12.884Z,979.62
2022-11-23T02:07:17.116Z,979.70
2022-11-23T02:12:21.199Z,979.79
2022-11-23T02:17:25.357Z,979.86
2022-11-23T02:22:29.548Z,980.01
2022-11-23T02:27:33.699Z,980.14
2022-11-23T02:32:37.845Z,980.29
2022-11-23T02:37:42.057Z,980.42
2022-11-23T02:42:46.202Z,980.42
2022-11-23T02:47:50.368Z,980.48
2022-11-23T02:52:54.685Z,980.61
2022-11-23T02:57:58.689Z,980.70
2022-11-23T03:03:02.816Z,980.82
2022-11-23T03:08:07.029Z,980.75
2022-11-23T03:13:11.160Z,980.73
2022-11-23T03:18:15.320Z,980.76
2022-11-23T03:23:19.494Z,980.69
2022-11-23T03:28:23.631Z,980.60
2022-11-23T03:33:27.817Z,980.22
2022-11-23T03:38:31.955Z,979.76
2022-11-23T03:43:36.161Z,979.41
2022-11-23T03:48:40.296Z,979.13
2022-11-23T03:53:44.462Z,978.93
2022-11-23T03:58:48.593Z,978.78
2022-11-23T04:03:52.764Z,978.57
2022-11-23T04:09:01.747Z,978.59
2022-11-23T04:14:01.180Z,978.52
2022-11-23T04:19:05.276Z,978.44
2022-11-23T04:24:09.447Z,978.32
2022-11-23T04:29:13.590Z,978.26
2022-11-23T04:34:17.784Z,978.06
2022-11-23T04:39:21.889Z,978.02
2022-11-23T04:44:26.084Z,978.00
2022-11-23T04:49:30.735Z,978.04
2022-11-23T04:54:34.400Z,978.08
2022-11-23T04:59:38.531Z,978.09
2022-11-23T05:04:42.741Z,978.04
2022-11-23T05:09:46.920Z,977.96
2022-11-23T05:14:51.068Z,977.98
2022-11-23T05:19:55.182Z,977.94
2022-11-23T05:24:59.366Z,977.93
2022-11-23T05:30:03.579Z,977.95
2022-11-23T05:35:07.724Z,977.95
2022-11-23T05:40:11.889Z,977.90
2022-11-23T05:45:16.038Z,978.04
2022-11-23T05:50:20.165Z,978.09
2022-11-23T05:55:24.332Z,978.09
2022-11-23T06:00:28.512Z,978.21
2022-11-23T06:05:32.641Z,978.20
2022-11-23T06:10:36.869Z,978.30
2022-11-23T06:15:40.992Z,978.45
2022-11-23T06:20:45.155Z,978.53
2022-11-23T06:30:53.454Z,978.46
2022-11-23T06:35:57.687Z,978.48
2022-11-23T06:41:01.815Z,978.57
2022-11-23T06:46:05.974Z,978.51
2022-11-23T06:51:10.110Z,978.58
2022-11-23T06:56:14.315Z,978.64
2022-11-23T07:01:18.517Z,978.75
2022-11-23T07:06:22.596Z,978.91
2022-11-23T07:11:26.796Z,979.01
2022-11-23T07:16:30.941Z,979.08
2022-11-23T07:21:33.213Z,979.22
2022-11-23T07:26:37.419Z,979.21
2022-11-23T07:31:41.532Z,979.34
2022-11-23T07:36:45.691Z,979.44
2022-11-23T07:41:51.475Z,979.63
2022-11-23T07:46:54.023Z,979.64
2022-11-23T07:51:56.292Z,979.80
2022-11-23T07:57:00.464Z,979.82
2022-11-23T08:02:04.675Z,979.83
2022-11-23T08:07:08.860Z,980.09
2022-11-23T08:12:12.981Z,980.22
2022-11-23T08:17:17.079Z,980.46
2022-11-23T08:22:21.251Z,980.69
2022-11-23T08:27:25.445Z,981.09
2022-11-23T08:32:29.598Z,981.38
2022-11-23T08:37:33.728Z,981.80
2022-11-23T08:42:37.907Z,982.22
2022-11-23T08:47:42.229Z,982.47
2022-11-23T08:52:46.241Z,982.70
2022-11-23T08:57:50.406Z,982.89
2022-11-23T09:02:54.601Z,983.06
2022-11-23T09:07:58.765Z,983.15
2022-11-23T09:13:02.880Z,983.15
2022-11-23T09:18:07.044Z,983.32
2022-11-23T09:23:14.342Z,983.30
2022-11-23T09:28:15.385Z,983.43
2022-11-23T09:33:19.539Z,983.38
2022-11-23T09:38:44.534Z,983.68
2022-11-23T09:43:27.876Z,983.64
2022-11-23T09:48:32.024Z,983.83
2022-11-23T09:53:36.177Z,983.94
2022-11-23T09:58:40.360Z,984.03
2022-11-23T10:03:48.739Z,984.27
2022-11-23T10:08:48.661Z,984.47
2022-11-23T10:13:52.815Z,984.49
2022-11-23T10:18:57.026Z,984.84
2022-11-23T10:24:01.140Z,984.91
2022-11-23T10:29:05.317Z,985.12
2022-11-23T10:34:09.471Z,985.32
2022-11-23T10:39:13.653Z,985.20
2022-11-23T10:44:17.805Z,985.27
2022-11-23T10:49:21.968Z,985.31
2022-11-23T10:54:26.163Z,985.70
2022-11-23T10:59:30.265Z,985.55
2022-11-23T11:04:34.748Z,985.34
2022-11-23T11:09:38.609Z,985.22
2022-11-23T11:14:43.519Z,985.10
2022-11-23T11:19:46.903Z,985.13
2022-11-23T11:24:51.085Z,985.31
2022-11-23T11:29:55.239Z,985.53
2022-11-23T11:34:59.423Z,985.31
2022-11-23T11:40:03.569Z,985.40
2022-11-23T11:45:07.737Z,985.20
2022-11-23T11:50:11.984Z,985.19
2022-11-23T11:55:16.052Z,985.04
2022-11-23T12:00:20.233Z,984.97
2022-11-23T12:05:24.390Z,985.34
2022-11-23T12:10:28.519Z,985.36
2022-11-23T12:15:48.796Z,985.32
2022-11-23T12:20:36.860Z,985.48
2022-11-23T12:25:41.012Z,985.56
2022-11-23T12:30:45.220Z,985.31
2022-11-23T12:35:49.336Z,985.60
2022-11-23T12:40:53.499Z,985.64
2022-11-23T12:45:57.649Z,985.80
2022-11-23T12:51:01.919Z,985.74
2022-11-23T12:56:05.971Z,985.71
2022-11-23T13:01:10.247Z,985.49
2022-11-23T13:06:14.348Z,985.47
2022-11-23T13:11:18.497Z,985.50
2022-11-23T13:16:22.832Z,985.52
2022-11-23T13:21:24.879Z,985.47
2022-11-23T13:26:29.079Z,985.47
2022-11-23T13:31:33.278Z,985.39
2022-11-23T13:37:10.631Z,985.52
2022-11-23T13:41:41.531Z,985.30
2022-11-23T13:46:45.735Z,985.31
2022-11-23T13:51:49.887Z,985.32
2022-11-23T13:56:54.066Z,985.35
2022-11-23T14:01:58.260Z,985.25
2022-11-23T14:07:02.346Z,985.30
2022-11-23T14:12:06.498Z,985.26
2022-11-23T14:17:10.675Z,985.28
2022-11-23T14:22:14.812Z,985.01
2022-11-23T14:27:45.856Z,984.92
2022-11-23T14:32:23.147Z,984.86
2022-11-23T14:37:27.350Z,984.77
2022-11-23T14:42:31.480Z,984.70
2022-11-23T14:47:35.672Z,984.67
2022-11-23T14:52:39.816Z,984.58
2022-11-23T14:57:43.956Z,984.72
2022-11-23T15:02:48.188Z,984.68
2022-11-23T15:07:52.359Z,984.59
2022-11-23T15:12:56.468Z,984.53
2022-11-23T15:18:00.636Z,984.66
2022-11-23T15:23:04.831Z,984.62
2022-11-23T15:28:08.931Z,984.63
2022-11-23T15:33:13.187Z,984.73
2022-11-23T15:38:22.022Z,984.95
2022-11-23T15:43:21.439Z,985.14
2022-11-23T15:48:25.583Z,985.19
2022-11-23T15:53:29.772Z,985.18
2022-11-23T15:58:33.925Z,985.20
2022-11-23T16:03:38.069Z,985.18
2022-11-23T16:08:42.234Z,985.17
2022-11-23T16:13:46.383Z,985.20
2022-11-23T16:18:50.581Z,985.20
2022-11-23T16:23:54.699Z,985.33
2022-11-23T16:28:58.901Z,985.19
2022-11-23T16:34:03.033Z,985.20
2022-11-23T16:39:07.208Z,985.02
2022-11-23T16:44:11.367Z,984.80
2022-11-23T16:49:15.524Z,984.61
2022-11-23T16:54:24.624Z,984.45
2022-11-23T16:59:23.897Z,984.20
2022-11-23T17:04:28.061Z,984.11
2022-11-23T17:09:32.447Z,983.73
2022-11-23T17:14:36.653Z,983.41
2022-11-23T17:19:40.546Z,983.30
2022-11-23T17:24:44.688Z,983.10
2022-11-23T17:29:48.912Z,982.93
2022-11-23T17:34:53.041Z,982.89
2022-11-23T17:39:57.154Z,982.84
2022-11-23T17:45:01.315Z,982.89
2022-11-23T17:50:05.484Z,983.08
2022-11-23T17:55:09.679Z,982.85
2022-11-23T18:00:13.798Z,982.75
2022-11-23T18:05:21.623Z,982.77
2022-11-23T18:10:22.150Z,982.60
2022-11-23T18:15:26.306Z,982.62
2022-11-23T18:20:30.463Z,982.79
2022-11-23T18:25:34.630Z,982.90
2022-11-23T18:30:38.851Z,982.94
2022-11-23T18:35:42.936Z,982.94
2022-11-23T18:40:47.096Z,982.99
2022-11-23T18:45:51.258Z,983.11
2022-11-23T18:50:53.548Z,983.17
2022-11-23T18:56:00.397Z,983.29
2022-11-23T19:01:01.896Z,983.31
2022-11-23T19:06:06.057Z,983.36
2022-11-23T19:11:10.222Z,983.44
2022-11-23T19:16:14.455Z,983.45
2022-11-23T19:21:18.556Z,983.35
2022-11-23T19:26:22.690Z,983.39
2022-11-23T19:31:26.904Z,983.35
2022-11-23T19:36:31.003Z,983.48
2022-11-23T19:41:35.196Z,983.57
2022-11-23T19:46:39.479Z,983.59
2022-11-23T19:51:43.586Z,983.60
2022-11-23T19:56:47.725Z,983.60
2022-11-23T20:01:51.903Z,983.63
2022-11-23T20:06:55.981Z,983.73
2022-11-23T20:12:00.182Z,983.80
2022-11-23T20:17:04.288Z,983.80
2022-11-23T20:22:08.504Z,984.08
2022-11-23T20:27:12.638Z,983.91
2022-11-23T20:32:16.780Z,983.97
2022-11-23T20:37:20.941Z,983.93
2022-11-23T20:42:25.137Z,984.05
2022-11-23T20:47:29.306Z,984.05
2022-11-23T20:52:33.443Z,984.05
2022-11-23T20:57:37.585Z,983.87
2022-11-23T21:02:41.824Z,983.88
2022-11-23T21:07:45.970Z,983.88
2022-11-23T21:12:50.719Z,983.83
2022-11-23T21:17:54.222Z,983.85
2022-11-23T21:22:58.426Z,983.77
2022-11-23T21:28:02.572Z,983.80
2022-11-23T21:33:06.720Z,983.76
2022-11-23T21:38:10.918Z,983.70
2022-11-23T21:43:15.034Z,983.67
2022-11-23T21:53:23.390Z,983.84
2022-11-23T21:58:27.530Z,983.87
2022-11-23T22:03:31.739Z,983.90
2022-11-23T22:08:35.920Z,983.93
2022-11-23T22:13:40.041Z,984.02
2022-11-23T22:18:44.188Z,984.14
2022-11-23T22:23:48.374Z,984.11
2022-11-23T22:28:52.527Z,984.17
2022-11-23T22:33:56.690Z,984.24
2022-11-23T22:39:01.697Z,984.39
2022-11-23T22:44:05.006Z,984.41
2022-11-23T22:49:09.175Z,984.52
2022-11-23T22:54:13.361Z,984.62
2022-11-23T22:59:17.500Z,984.59
2022-11-23T23:04:21.654Z,984.76
2022-11-23T23:09:25.828Z,984.73
2022-11-23T23:14:30.088Z,985.02
2022-11-23T23:19:34.170Z,985.15
2022-11-23T23:24:38.325Z,985.16
2022-11-23T23:29:42.455Z,985.18
2022-11-23T23:34:46.637Z,985.35
2022-11-23T23:39:50.802Z,985.51
2022-11-23T23:44:54.934Z,985.67
2022-11-23T23:49:59.109Z,985.73
2022-11-23T23:55:03.257Z,985.76
